createdAt,value
2023-05-13T00:01:10.433Z,14.80
2023-05-13T00:04:21.925Z,13.70
2023-05-13T00:08:18.276Z,13.50
2023-05-13T00:14:59.861Z,13.30
2023-05-13T00:28:26.415Z,13.20
2023-05-13T00:32:01.200Z,13.10
2023-05-13T04:17:07.573Z,13.00
2023-05-13T04:20:35.027Z,13.20
2023-05-13T04:27:34.168Z,13.20
2023-05-13T04:34:01.896Z,13.20
2023-05-13T04:37:19.075Z,13.20
2023-05-13T04:40:41.855Z,13.30
2023-05-13T04:43:55.415Z,13.40
2023-05-13T04:47:06.409Z,13.40
2023-05-13T04:50:18.324Z,13.40
2023-05-13T04:53:44.289Z,13.60
2023-05-13T04:57:04.613Z,13.70
2023-05-13T06:15:11.121Z,13.70
2023-05-13T06:22:22.155Z,14.80
2023-05-13T06:25:21.888Z,15.40
2023-05-13T06:28:52.094Z,15.40
2023-05-13T06:32:03.992Z,15.60
2023-05-13T06:39:26.355Z,15.70
2023-05-13T06:42:27.428Z,15.90
2023-05-13T06:45:45.792Z,16.20
2023-05-13T06:49:11.444Z,16.30
2023-05-13T07:15:36.121Z,16.40
2023-05-13T07:18:52.277Z,17.40
2023-05-13T07:55:21.707Z,17.50
2023-05-13T07:59:13.150Z,17.30
2023-05-13T08:02:17.449Z,17.40
2023-05-13T08:05:23.585Z,17.90
2023-05-13T08:08:40.801Z,17.70
2023-05-13T08:15:33.920Z,17.70
2023-05-13T08:19:02.542Z,17.60
2023-05-13T08:22:25.748Z,17.70
2023-05-13T08:25:41.504Z,17.60
2023-05-13T08:28:55.049Z,18.00
2023-05-13T08:32:10.409Z,18.10
2023-05-13T08:35:21.174Z,17.80
2023-05-13T08:38:29.283Z,17.90
2023-05-13T08:41:47.129Z,18.00
2023-05-13T08:44:58.634Z,18.10
2023-05-13T08:48:22.417Z,18.10
2023-05-13T08:52:20.747Z,18.20
2023-05-13T08:56:00.943Z,18.60
2023-05-13T08:59:29.371Z,18.20
2023-05-13T09:06:43.114Z,17.90
2023-05-13T09:09:52.390Z,18.20
2023-05-13T09:17:59.678Z,18.20
2023-05-13T10:32:19.761Z,18.40
2023-05-13T10:49:02.982Z,18.90
2023-05-13T10:52:28.128Z,18.20
2023-05-13T10:55:31.805Z,18.20
2023-05-13T10:58:42.609Z,18.10
2023-05-13T11:01:57.624Z,18.20
2023-05-13T11:09:10.662Z,18.20
2023-05-13T11:12:35.192Z,18.20
2023-05-13T11:15:56.090Z,18.20
2023-05-13T11:19:07.964Z,17.80
2023-05-13T11:22:19.558Z,18.10
2023-05-13T11:25:41.024Z,18.70
2023-05-13T11:29:03.864Z,19.00
2023-05-13T11:32:26.688Z,19.10
2023-05-13T11:43:46.779Z,19.30
2023-05-13T12:04:04.839Z,20.20
2023-05-13T12:07:18.748Z,20.30
2023-05-13T12:10:30.823Z,19.90
2023-05-13T12:13:54.902Z,20.20
2023-05-13T12:17:13.909Z,20.40
2023-05-13T12:20:46.711Z,20.50
2023-05-13T12:24:15.147Z,20.10
2023-05-13T12:27:40.895Z,20.50
2023-05-13T12:30:49.384Z,20.70
2023-05-13T12:34:17.561Z,20.10
2023-05-13T12:37:37.115Z,20.00
2023-05-13T12:41:24.044Z,20.00
2023-05-13T12:44:35.472Z,20.10
2023-05-13T12:47:29.997Z,20.30
2023-05-13T12:54:00.206Z,20.10
2023-05-13T12:57:36.742Z,20.10
2023-05-13T13:04:25.072Z,20.00
2023-05-13T13:07:57.510Z,19.80
2023-05-13T13:14:41.319Z,20.10
2023-05-13T13:18:04.055Z,20.40
2023-05-13T13:21:31.186Z,20.50
2023-05-13T13:24:40.595Z,20.70
2023-05-13T13:27:52.406Z,21.50
2023-05-13T13:32:03.274Z,21.10
2023-05-13T13:35:17.705Z,21.10
2023-05-13T13:41:44.792Z,20.40
2023-05-13T13:45:02.622Z,20.20
2023-05-13T13:51:47.214Z,19.70
2023-05-13T13:55:08.378Z,19.80
2023-05-13T14:01:45.736Z,19.80
2023-05-13T14:05:07.281Z,20.10
2023-05-13T14:12:32.865Z,20.40
2023-05-13T14:15:34.239Z,20.20
2023-05-13T14:18:43.399Z,20.20
2023-05-13T14:21:46.082Z,20.20
2023-05-13T14:25:42.432Z,20.20
2023-05-13T14:28:57.696Z,20.30
2023-05-13T14:32:14.468Z,20.40
2023-05-13T14:35:24.959Z,20.70
2023-05-13T14:38:25.197Z,20.20
2023-05-13T14:41:46.812Z,20.10
2023-05-13T14:45:25.718Z,20.40
2023-05-13T14:48:44.646Z,20.20
2023-05-13T14:52:06.605Z,20.30
2023-05-13T14:55:24.211Z,20.50
2023-05-13T15:05:44.030Z,20.40
2023-05-13T15:09:01.496Z,19.70
2023-05-13T15:12:14.813Z,19.60
2023-05-13T15:15:52.217Z,19.90
2023-05-13T15:19:48.760Z,19.90
2023-05-13T15:26:31.965Z,19.30
2023-05-13T15:33:13.717Z,19.10
2023-05-13T15:36:31.024Z,19.40
2023-05-13T15:41:04.334Z,19.40
2023-05-13T15:43:37.516Z,19.00
2023-05-13T15:46:33.191Z,19.30
2023-05-13T15:49:45.589Z,19.10
2023-05-13T15:56:15.331Z,19.00
2023-05-13T15:59:38.080Z,18.60
2023-05-13T16:02:52.629Z,18.90
2023-05-13T16:06:07.418Z,18.50
2023-05-13T16:09:22.895Z,18.60
2023-05-13T16:12:49.901Z,18.70
2023-05-13T16:16:08.049Z,18.70
2023-05-13T16:19:38.856Z,18.20
2023-05-13T16:23:06.348Z,18.20
2023-05-13T16:26:32.717Z,18.10
2023-05-13T16:29:54.272Z,18.20
2023-05-13T16:33:14.335Z,18.20
2023-05-13T16:36:25.753Z,18.20
2023-05-13T16:39:42.289Z,18.30
2023-05-13T16:43:03.276Z,18.10
2023-05-13T16:59:22.124Z,17.80
2023-05-13T17:09:54.787Z,16.00
2023-05-13T17:15:52.981Z,16.40
2023-05-13T17:19:02.984Z,15.50
2023-05-13T17:35:29.431Z,15.30
2023-05-13T18:01:03.607Z,14.60
2023-05-13T18:04:27.588Z,13.80
2023-05-13T18:20:55.748Z,13.40
2023-05-13T18:24:20.651Z,13.40
2023-05-13T18:30:51.162Z,13.20
2023-05-13T18:33:45.208Z,13.10
2023-05-13T21:21:01.701Z,13.00
2023-05-13T21:24:06.491Z,11.70
2023-05-13T21:27:43.388Z,11.60
2023-05-13T21:31:04.914Z,11.60
2023-05-13T21:34:06.254Z,11.70
2023-05-13T21:37:14.196Z,11.60
2023-05-13T21:40:18.297Z,11.60
2023-05-13T21:43:40.412Z,11.60
2023-05-13T21:46:50.166Z,11.60
2023-05-13T21:50:09.261Z,11.60
2023-05-13T21:56:45.913Z,11.60
2023-05-13T22:00:16.426Z,11.50
2023-05-13T22:03:26.663Z,11.50
2023-05-13T22:10:33.418Z,11.50
